Armutova, Turkey
Current Conditions -  °F | °C
As of 4:50 PM on Saturday 22 Nov 2014 (Local Time) from LTFD Reporting Station
Scattered Clouds Scattered Clouds  
Wind Chill: 54°   Ceiling: Unl
Heat Index: 54°   Visibility: 6mi
Dew Point: 36°   Wind: 16mph
Humidity: 51%   Direction: 70°ENE
Pressure: 30.24"   Gusts: NA
Location:  39.39°N, 26.84°E
Report Text: LTFD 221350Z 07014KT 9999 SCT035 12/02 Q1024
Loading
Personal Weather Stations






























Interactive Weather Map New forecast layout! Learn more

10-Day Weather Forecast

Advertisements
Track Severe Weather on mobile